createdAt,value
2022-08-02T00:02:40.987Z,95492.56
2022-08-02T00:05:27.014Z,95491.00
2022-08-02T00:08:13.072Z,95499.66
2022-08-02T00:10:59.023Z,95497.28
2022-08-02T00:13:44.710Z,95494.91
2022-08-02T00:16:38.270Z,95497.28
2022-08-02T00:19:25.512Z,95489.41
2022-08-02T00:22:12.260Z,95494.13
2022-08-02T00:24:58.185Z,95488.22
2022-08-02T00:27:44.195Z,95491.34
2022-08-02T00:30:30.455Z,95487.00
2022-08-02T00:33:16.444Z,95488.22
2022-08-02T00:36:22.286Z,95487.81
2022-08-02T00:39:08.134Z,95485.03
2022-08-02T00:42:15.555Z,95485.41
2022-08-02T00:45:03.137Z,95483.81
2022-08-02T00:47:48.852Z,95484.19
2022-08-02T00:50:35.311Z,95483.03
2022-08-02T00:53:21.470Z,95477.91
2022-08-02T00:56:07.382Z,95482.22
2022-08-02T00:58:53.554Z,95490.09
2022-08-02T01:01:56.300Z,95482.59
2022-08-02T01:04:43.545Z,95478.28
2022-08-02T01:07:29.693Z,95473.94
2022-08-02T01:10:15.583Z,95477.06
2022-08-02T01:13:04.894Z,95480.22
2022-08-02T01:16:10.885Z,95473.84
2022-08-02T01:19:00.212Z,95482.16
2022-08-02T01:22:00.198Z,95467.13
2022-08-02T01:25:01.638Z,95475.41
2022-08-02T01:28:18.005Z,95471.03
2022-08-02T01:31:27.019Z,95471.81
2022-08-02T01:34:18.663Z,95476.53
2022-08-02T01:37:14.945Z,95471.78
2022-08-02T01:40:05.318Z,95484.78
2022-08-02T01:42:54.494Z,95479.28
2022-08-02T01:45:42.349Z,95477.28
2022-08-02T01:48:29.217Z,95473.72
2022-08-02T01:51:18.182Z,95467.81
2022-08-02T01:54:04.258Z,95472.13
2022-08-02T01:56:51.534Z,95473.72
2022-08-02T01:59:38.180Z,95461.91
2022-08-02T02:02:26.282Z,95463.09
2022-08-02T02:05:17.083Z,95469.34
2022-08-02T02:08:04.947Z,95477.19
2022-08-02T02:10:51.684Z,95482.72
2022-08-02T02:13:40.879Z,95480.34
2022-08-02T02:16:27.485Z,95475.63
2022-08-02T02:19:21.020Z,95486.63
2022-08-02T02:22:08.339Z,95481.88
2022-08-02T02:24:56.898Z,95487.84
2022-08-02T02:28:00.471Z,95484.28
2022-08-02T02:30:49.239Z,95491.38
2022-08-02T02:33:47.478Z,95481.13
2022-08-02T02:36:34.148Z,95494.56
2022-08-02T02:39:22.519Z,95496.09
2022-08-02T02:42:09.794Z,95496.47
2022-08-02T02:44:57.395Z,95492.53
2022-08-02T02:47:43.376Z,95485.84
2022-08-02T02:50:30.559Z,95491.34
2022-08-02T02:53:18.913Z,95493.69
2022-08-02T02:56:05.615Z,95494.41
2022-08-02T02:58:54.695Z,95492.84
2022-08-02T03:01:56.042Z,95494.38
2022-08-02T03:04:55.840Z,95497.94
2022-08-02T03:07:43.607Z,95495.53
2022-08-02T03:10:29.852Z,95491.97
2022-08-02T03:13:16.351Z,95497.47
2022-08-02T03:16:03.387Z,95497.47
2022-08-02T03:18:49.117Z,95508.88
2022-08-02T03:21:38.830Z,95504.53
2022-08-02T03:24:28.203Z,95509.66
2022-08-02T03:27:14.415Z,95507.66
2022-08-02T03:30:00.408Z,95505.28
2022-08-02T03:32:48.045Z,95509.94
2022-08-02T03:35:34.509Z,95510.72
2022-08-02T03:38:21.939Z,95500.47
2022-08-02T03:41:09.478Z,95511.91
2022-08-02T03:43:56.108Z,95511.47
2022-08-02T03:46:42.440Z,95511.47
2022-08-02T03:49:32.408Z,95513.81
2022-08-02T03:52:18.718Z,95506.72
2022-08-02T03:55:05.257Z,95510.66
2022-08-02T03:57:51.290Z,95516.16
2022-08-02T04:00:38.027Z,95519.31
2022-08-02T04:03:24.080Z,95523.25
2022-08-02T04:06:10.169Z,95528.00
2022-08-02T04:08:55.995Z,95536.66
2022-08-02T04:11:41.652Z,95537.47
2022-08-02T04:14:27.868Z,95531.59
2022-08-02T04:17:15.852Z,95537.47
2022-08-02T04:20:04.606Z,95535.13
2022-08-02T04:23:05.381Z,95537.47
2022-08-02T04:25:51.964Z,95539.84
2022-08-02T04:28:40.090Z,95535.88
2022-08-02T04:31:26.673Z,95536.31
2022-08-02T04:34:15.315Z,95537.47
2022-08-02T04:37:01.386Z,95535.13
2022-08-02T04:39:47.571Z,95537.50
2022-08-02T04:42:33.648Z,95543.81
2022-08-02T04:45:20.124Z,95539.13
2022-08-02T04:48:06.694Z,95538.34
2022-08-02T04:50:53.107Z,95537.59
2022-08-02T04:53:38.951Z,95532.09
2022-08-02T04:56:24.893Z,95545.16
2022-08-02T04:59:12.483Z,95545.56
2022-08-02T05:01:58.340Z,95544.84
2022-08-02T05:04:44.246Z,95547.22
2022-08-02T05:07:30.392Z,95540.91
2022-08-02T05:10:22.388Z,95539.41
2022-08-02T05:13:08.127Z,95541.78
2022-08-02T05:15:54.050Z,95543.34
2022-08-02T05:18:40.085Z,95545.75
2022-08-02T05:21:26.299Z,95543.00
2022-08-02T05:24:12.352Z,95546.16
2022-08-02T05:26:57.985Z,95543.41
2022-08-02T05:29:51.201Z,95547.75
2022-08-02T05:32:48.433Z,95545.00
2022-08-02T05:35:35.196Z,95541.06
2022-08-02T05:38:25.967Z,95545.78
2022-08-02T05:41:12.206Z,95541.06
2022-08-02T05:43:58.024Z,95544.22
2022-08-02T05:46:44.136Z,95544.66
2022-08-02T05:49:30.321Z,95547.44
2022-08-02T05:52:18.606Z,95540.31
2022-08-02T05:55:13.424Z,95539.53
2022-08-02T05:58:09.498Z,95562.44
2022-08-02T06:00:56.678Z,95568.75
2022-08-02T06:03:52.388Z,95567.16
2022-08-02T06:06:38.518Z,95564.81
2022-08-02T06:09:27.303Z,95555.41
2022-08-02T06:12:14.941Z,95561.75
2022-08-02T06:15:03.426Z,95557.03
2022-08-02T06:17:49.106Z,95557.03
2022-08-02T06:20:36.959Z,95555.09
2022-08-02T06:23:23.421Z,95560.22
2022-08-02T06:26:12.074Z,95551.94
2022-08-02T06:28:58.515Z,95563.47
2022-08-02T06:31:45.479Z,95557.94
2022-08-02T06:34:31.692Z,95560.31
2022-08-02T06:37:56.920Z,95574.50
2022-08-02T06:41:13.845Z,95559.97
2022-08-02T06:44:26.292Z,95556.41
2022-08-02T06:47:23.730Z,95567.06
2022-08-02T06:50:10.566Z,95552.53
2022-08-02T06:52:56.875Z,95562.38
2022-08-02T06:55:44.026Z,95564.38
2022-08-02T06:58:30.217Z,95557.28
2022-08-02T07:01:16.355Z,95553.34
2022-08-02T07:04:02.147Z,95553.34
2022-08-02T07:06:47.985Z,95553.75
2022-08-02T07:09:34.059Z,95549.44
2022-08-02T07:12:20.080Z,95548.66
2022-08-02T07:15:08.243Z,95551.00
2022-08-02T07:17:54.239Z,95561.28
2022-08-02T07:20:40.023Z,95541.16
2022-08-02T07:23:25.691Z,95549.47
2022-08-02T07:26:11.543Z,95546.31
2022-08-02T07:28:58.656Z,95547.91
2022-08-02T07:31:44.602Z,95553.06
2022-08-02T07:34:30.358Z,95550.31
2022-08-02T07:37:31.907Z,95542.44
2022-08-02T07:40:29.057Z,95549.13
2022-08-02T07:43:15.238Z,95541.66
2022-08-02T07:46:01.276Z,95543.25
2022-08-02T07:48:57.050Z,95551.91
2022-08-02T07:51:43.257Z,95541.66
2022-08-02T07:54:31.066Z,95546.78
2022-08-02T07:57:16.694Z,95551.91
2022-08-02T08:00:06.505Z,95551.13
2022-08-02T08:02:58.972Z,95534.56
2022-08-02T08:05:44.860Z,95542.47
2022-08-02T08:08:30.554Z,95544.81
2022-08-02T08:11:16.546Z,95546.41
2022-08-02T08:14:02.939Z,95545.59
2022-08-02T08:16:49.002Z,95537.31
2022-08-02T08:19:50.847Z,95541.69
2022-08-02T08:22:41.566Z,95542.44
2022-08-02T08:25:27.872Z,95532.97
2022-08-02T08:28:14.847Z,95537.72
2022-08-02T08:31:00.606Z,95533.78
2022-08-02T08:33:46.356Z,95543.25
2022-08-02T08:36:32.289Z,95541.66
2022-08-02T08:39:18.246Z,95543.25
2022-08-02T08:42:07.853Z,95534.59
2022-08-02T08:44:56.180Z,95540.09
2022-08-02T08:47:45.533Z,95533.78
2022-08-02T08:50:34.489Z,95536.91
2022-08-02T08:53:22.025Z,95532.16
2022-08-02T08:56:42.696Z,95536.13
2022-08-02T08:59:39.192Z,95542.44
2022-08-02T09:02:28.353Z,95546.75
2022-08-02T09:05:16.673Z,95544.38
2022-08-02T09:08:02.375Z,95547.53
2022-08-02T09:10:49.126Z,95535.31
2022-08-02T09:13:45.189Z,95537.66
2022-08-02T09:16:52.702Z,95536.84
2022-08-02T09:19:45.688Z,95538.03
2022-08-02T09:22:32.147Z,95524.22
2022-08-02T09:25:18.241Z,95521.03
2022-08-02T09:28:39.762Z,95525.75
2022-08-02T09:31:26.120Z,95525.00
2022-08-02T09:34:12.462Z,95507.56
2022-08-02T09:37:37.931Z,95518.22
2022-08-02T09:40:40.939Z,95501.22
2022-08-02T09:43:58.826Z,95499.59
2022-08-02T09:46:56.714Z,95497.97
2022-08-02T09:49:52.295Z,95492.44
2022-08-02T09:52:47.780Z,95494.75
2022-08-02T09:55:33.855Z,95485.28
2022-08-02T09:58:20.477Z,95495.50
2022-08-02T10:01:07.060Z,95482.84
2022-08-02T10:04:02.290Z,95475.69
2022-08-02T10:06:52.013Z,95468.53
2022-08-02T10:09:43.181Z,95473.28
2022-08-02T10:12:38.074Z,95476.38
2022-08-02T10:15:27.339Z,95481.06
2022-08-02T10:18:37.032Z,95470.75
2022-08-02T10:21:56.372Z,95469.91
2022-08-02T10:24:47.686Z,95461.97
2022-08-02T10:27:55.512Z,95461.94
2022-08-02T10:30:53.817Z,95462.66
2022-08-02T10:33:40.114Z,95464.25
2022-08-02T10:36:27.395Z,95452.38
2022-08-02T10:39:20.656Z,95460.28
2022-08-02T10:42:12.580Z,95457.91
2022-08-02T10:46:00.431Z,95468.97
2022-08-02T10:52:20.407Z,95466.03
2022-08-02T10:55:14.572Z,95456.84
2022-08-02T10:58:17.408Z,95456.84
2022-08-02T11:01:06.070Z,95455.16
2022-08-02T11:03:58.435Z,95456.69
2022-08-02T11:07:18.243Z,95446.72
2022-08-02T11:10:35.107Z,95448.66
2022-08-02T11:13:20.799Z,95449.41
2022-08-02T11:16:11.276Z,95447.78
2022-08-02T11:18:57.637Z,95447.72
2022-08-02T11:22:07.019Z,95441.66
2022-08-02T11:24:52.983Z,95439.59
2022-08-02T11:27:38.928Z,95439.47
2022-08-02T11:30:26.409Z,95449.66
2022-08-02T11:33:13.139Z,95446.38
2022-08-02T11:36:04.411Z,95446.69
2022-08-02T11:38:50.323Z,95434.00
2022-08-02T11:41:47.143Z,95441.41
2022-08-02T11:44:42.400Z,95433.41
2022-08-02T11:47:28.708Z,95429.34
2022-08-02T11:50:14.911Z,95424.16
2022-08-02T11:53:00.755Z,95432.41
2022-08-02T11:55:46.568Z,95415.03
2022-08-02T11:58:32.734Z,95426.84
2022-08-02T12:01:18.675Z,95424.44
2022-08-02T12:04:07.522Z,95422.81
2022-08-02T12:06:56.239Z,95435.38
2022-08-02T12:09:42.953Z,95429.38
2022-08-02T12:12:29.135Z,95435.53
2022-08-02T12:15:15.585Z,95446.06
2022-08-02T12:18:20.262Z,95433.19
2022-08-02T12:21:26.897Z,95439.00
2022-08-02T12:24:13.259Z,95438.53
2022-08-02T12:26:59.213Z,95443.22
2022-08-02T12:29:57.871Z,95441.66
2022-08-02T12:32:46.197Z,95443.16
2022-08-02T12:35:32.274Z,95432.34
2022-08-02T12:38:18.306Z,95433.44
2022-08-02T12:41:31.424Z,95428.44
2022-08-02T12:44:19.676Z,95437.00
2022-08-02T12:47:09.671Z,95432.88
2022-08-02T12:50:16.482Z,95437.25
2022-08-02T12:53:14.003Z,95437.66
2022-08-02T12:56:03.729Z,95430.25
2022-08-02T12:58:51.473Z,95437.75
2022-08-02T13:01:37.961Z,95430.97
2022-08-02T13:04:24.288Z,95433.56
2022-08-02T13:07:11.018Z,95436.13
2022-08-02T13:10:00.311Z,95435.41
2022-08-02T13:12:49.846Z,95423.97
2022-08-02T13:15:49.898Z,95434.31
2022-08-02T13:18:36.877Z,95431.03
2022-08-02T13:21:39.797Z,95425.91
2022-08-02T13:24:38.179Z,95433.53
2022-08-02T13:27:28.594Z,95427.50
2022-08-02T13:30:14.791Z,95423.50
2022-08-02T13:33:01.458Z,95432.69
2022-08-02T13:35:48.259Z,95420.84
2022-08-02T13:38:34.530Z,95428.25
2022-08-02T13:41:20.766Z,95431.84
2022-08-02T13:44:10.290Z,95424.91
2022-08-02T13:46:56.838Z,95427.13
2022-08-02T13:49:50.675Z,95430.16
2022-08-02T13:52:37.749Z,95433.47
2022-08-02T13:55:24.430Z,95431.31
2022-08-02T13:58:10.682Z,95427.13
2022-08-02T14:00:56.683Z,95421.03
2022-08-02T14:04:06.079Z,95413.31
2022-08-02T14:06:49.129Z,95425.88
2022-08-02T14:09:38.486Z,95424.31
2022-08-02T14:12:26.579Z,95416.09
2022-08-02T14:15:12.477Z,95426.88
2022-08-02T14:17:58.738Z,95425.13
2022-08-02T14:20:45.687Z,95423.22
2022-08-02T14:23:50.749Z,95420.50
2022-08-02T14:26:38.383Z,95416.97
2022-08-02T14:29:24.519Z,95421.69
2022-08-02T14:32:11.193Z,95419.22
2022-08-02T14:34:57.921Z,95421.09
2022-08-02T14:37:44.777Z,95418.97
2022-08-02T14:40:32.140Z,95415.25
2022-08-02T14:43:37.755Z,95418.66
2022-08-02T14:46:24.293Z,95411.00
2022-08-02T14:49:11.072Z,95418.63
2022-08-02T14:52:01.295Z,95412.97
2022-08-02T14:54:48.350Z,95412.97
2022-08-02T14:57:34.790Z,95421.00
2022-08-02T15:00:21.761Z,95412.69
2022-08-02T15:03:09.092Z,95427.53
2022-08-02T15:05:55.920Z,95421.69
2022-08-02T15:08:42.181Z,95430.66
2022-08-02T15:11:29.170Z,95418.25
2022-08-02T15:14:25.812Z,95427.31
2022-08-02T15:17:13.883Z,95427.38
2022-08-02T15:20:05.621Z,95427.75
2022-08-02T15:22:58.085Z,95424.34
2022-08-02T15:25:44.850Z,95418.38
2022-08-02T15:28:31.441Z,95416.41
2022-08-02T15:31:33.474Z,95419.19
2022-08-02T15:34:19.956Z,95418.88
2022-08-02T15:37:06.354Z,95411.16
2022-08-02T15:39:52.505Z,95414.69
2022-08-02T15:42:38.234Z,95415.41
2022-08-02T15:45:25.566Z,95407.13
2022-08-02T15:48:12.451Z,95416.41
2022-08-02T15:50:58.163Z,95419.78
2022-08-02T15:53:43.889Z,95412.63
2022-08-02T15:56:31.794Z,95418.81
2022-08-02T15:59:19.814Z,95418.97
2022-08-02T16:02:07.043Z,95414.53
2022-08-02T16:04:54.671Z,95430.94
2022-08-02T16:07:41.330Z,95430.19
2022-08-02T16:10:27.439Z,95433.56
2022-08-02T16:13:36.337Z,95429.16
2022-08-02T16:16:26.721Z,95429.25
2022-08-02T16:19:45.976Z,95432.78
2022-08-02T16:22:20.887Z,95428.81
2022-08-02T16:25:08.367Z,95426.72
2022-08-02T16:28:06.575Z,95426.50
2022-08-02T16:31:10.352Z,95436.56
2022-08-02T16:33:57.686Z,95418.81
2022-08-02T16:36:43.909Z,95421.56
2022-08-02T16:39:29.815Z,95425.09
2022-08-02T16:42:16.912Z,95431.91
2022-08-02T16:45:12.003Z,95434.56
2022-08-02T16:48:03.625Z,95424.56
2022-08-02T16:50:51.615Z,95433.13
2022-08-02T16:53:40.005Z,95441.00
2022-08-02T16:56:43.835Z,95451.16
2022-08-02T16:59:41.988Z,95450.22
2022-08-02T17:02:30.023Z,95454.09
2022-08-02T17:05:15.849Z,95450.75
2022-08-02T17:08:15.923Z,95453.28
2022-08-02T17:11:04.558Z,95465.84
2022-08-02T17:13:51.050Z,95463.75
2022-08-02T17:16:37.014Z,95469.06
2022-08-02T17:19:23.260Z,95465.31
2022-08-02T17:25:17.761Z,95472.06
2022-08-02T17:28:04.010Z,95481.38
2022-08-02T17:30:51.686Z,95477.97
2022-08-02T17:33:37.872Z,95469.84
2022-08-02T17:36:23.994Z,95478.72
2022-08-02T17:39:10.227Z,95476.50
2022-08-02T17:41:56.917Z,95479.38
2022-08-02T17:44:49.023Z,95476.28
2022-08-02T17:47:42.369Z,95480.44
2022-08-02T17:50:28.894Z,95483.00
2022-08-02T17:53:15.180Z,95491.84
2022-08-02T17:56:01.611Z,95493.94
2022-08-02T17:58:52.018Z,95490.91
2022-08-02T18:01:52.996Z,95500.97
2022-08-02T18:04:40.526Z,95505.47
2022-08-02T18:07:26.419Z,95508.75
2022-08-02T18:10:32.503Z,95514.00
2022-08-02T18:13:18.803Z,95510.13
2022-08-02T18:16:05.668Z,95513.41
2022-08-02T18:19:16.704Z,95517.44
2022-08-02T18:22:14.092Z,95509.56
2022-08-02T18:25:00.900Z,95512.84
2022-08-02T18:27:55.505Z,95526.03
2022-08-02T18:30:42.569Z,95504.75
2022-08-02T18:33:57.103Z,95522.59
2022-08-02T18:36:47.383Z,95513.94
2022-08-02T18:39:34.185Z,95532.25
2022-08-02T18:42:24.735Z,95534.66
2022-08-02T18:45:19.891Z,95534.34
2022-08-02T18:48:08.144Z,95550.69
2022-08-02T18:50:54.510Z,95548.72
2022-08-02T18:53:42.965Z,95554.72
2022-08-02T18:56:32.658Z,95550.03
2022-08-02T18:59:20.287Z,95553.63
2022-08-02T19:02:06.808Z,95561.22
2022-08-02T19:04:52.539Z,95554.09
2022-08-02T19:07:50.669Z,95562.50
2022-08-02T19:10:39.626Z,95569.31
2022-08-02T19:13:40.753Z,95567.84
2022-08-02T19:16:37.260Z,95568.66
2022-08-02T19:19:28.836Z,95577.03
2022-08-02T19:22:19.201Z,95580.72
2022-08-02T19:25:06.718Z,95583.16
2022-08-02T19:28:01.199Z,95584.81
2022-08-02T19:30:48.315Z,95592.44
2022-08-02T19:34:04.374Z,95588.16
2022-08-02T19:36:44.863Z,95585.84
2022-08-02T19:39:30.639Z,95593.78
2022-08-02T19:42:17.349Z,95590.25
2022-08-02T19:45:05.483Z,95602.59
2022-08-02T19:47:54.448Z,95590.72
2022-08-02T19:50:44.288Z,95591.59
2022-08-02T19:53:48.189Z,95600.34
2022-08-02T19:56:37.017Z,95604.31
2022-08-02T19:59:26.654Z,95594.84
2022-08-02T20:02:18.884Z,95588.56
2022-08-02T20:05:16.479Z,95590.97
2022-08-02T20:08:10.428Z,95597.31
2022-08-02T20:11:18.782Z,95595.00
2022-08-02T20:14:05.694Z,95599.78
2022-08-02T20:16:52.019Z,95585.59
2022-08-02T20:19:41.812Z,95593.56
2022-08-02T20:22:32.975Z,95602.28
2022-08-02T20:25:19.202Z,95591.66
2022-08-02T20:28:05.433Z,95590.50
2022-08-02T20:30:51.864Z,95585.03
2022-08-02T20:33:55.362Z,95588.22
2022-08-02T20:36:42.907Z,95588.22
2022-08-02T20:39:42.973Z,95587.09
2022-08-02T20:42:29.546Z,95584.03
2022-08-02T20:45:17.173Z,95588.38
2022-08-02T20:48:05.036Z,95599.84
2022-08-02T20:50:54.248Z,95594.72
2022-08-02T20:53:54.602Z,95590.00
2022-08-02T20:56:47.606Z,95602.69
2022-08-02T20:59:38.511Z,95604.69
2022-08-02T21:02:25.576Z,95601.13
2022-08-02T21:05:17.336Z,95594.84
2022-08-02T21:08:20.545Z,95603.16
2022-08-02T21:11:09.225Z,95589.38
2022-08-02T21:14:07.946Z,95602.81
2022-08-02T21:16:55.576Z,95599.66
2022-08-02T21:19:44.176Z,95601.25
2022-08-02T21:22:30.735Z,95598.94
2022-08-02T21:25:18.681Z,95594.97
2022-08-02T21:28:10.055Z,95606.88
2022-08-02T21:31:03.576Z,95602.97
2022-08-02T21:33:58.116Z,95607.72
2022-08-02T21:36:56.668Z,95607.75
2022-08-02T21:39:42.965Z,95604.97
2022-08-02T21:42:41.493Z,95621.19
2022-08-02T21:45:27.798Z,95620.41
2022-08-02T21:48:14.221Z,95618.81
2022-08-02T21:50:59.864Z,95622.81
2022-08-02T21:54:18.547Z,95625.56
2022-08-02T21:56:55.402Z,95617.72
2022-08-02T21:59:41.607Z,95617.72
2022-08-02T22:02:31.449Z,95622.84
2022-08-02T22:05:17.395Z,95628.44
2022-08-02T22:08:03.617Z,95632.38
2022-08-02T22:11:03.302Z,95629.66
2022-08-02T22:13:54.658Z,95626.09
2022-08-02T22:16:40.626Z,95631.66
2022-08-02T22:19:26.850Z,95630.84
2022-08-02T22:22:14.737Z,95637.97
2022-08-02T22:25:00.814Z,95636.38
2022-08-02T22:28:12.006Z,95635.63
2022-08-02T22:30:58.212Z,95630.06
2022-08-02T22:34:04.486Z,95629.28
2022-08-02T22:36:57.443Z,95625.34
2022-08-02T22:40:09.024Z,95625.34
2022-08-02T22:42:49.211Z,95638.00
2022-08-02T22:45:37.589Z,95626.53
2022-08-02T22:48:24.834Z,95628.91
2022-08-02T22:51:10.738Z,95628.53
2022-08-02T22:53:58.431Z,95629.31
2022-08-02T22:56:44.620Z,95630.88
2022-08-02T22:58:49.322Z,95472.63
2022-08-02T22:59:39.021Z,95630.88
2022-08-02T23:02:26.492Z,95627.75
2022-08-02T23:05:12.556Z,95631.69
2022-08-02T23:07:58.998Z,95636.03
2022-08-02T23:10:47.262Z,95631.69
2022-08-02T23:13:36.406Z,95634.06
2022-08-02T23:16:40.475Z,95630.50
2022-08-02T23:19:46.561Z,95629.31
2022-08-02T23:22:32.660Z,95634.06
2022-08-02T23:25:18.558Z,95643.47
2022-08-02T23:28:04.739Z,95643.88
2022-08-02T23:30:50.738Z,95637.97
2022-08-02T23:33:36.498Z,95641.09
2022-08-02T23:36:43.711Z,95637.94
2022-08-02T23:39:34.083Z,95635.97
2022-08-02T23:42:23.361Z,95633.63
2022-08-02T23:45:09.809Z,95632.41
2022-08-02T23:47:55.535Z,95637.13
2022-08-02T23:50:41.728Z,95631.22
2022-08-02T23:53:27.487Z,95632.41
2022-08-02T23:56:13.462Z,95642.66
2022-08-02T23:58:59.752Z,95641.06
